Time;durP1;ratioP1;P1;durP2;ratioP2;P2;SDS_P1;SDS_P2;PMS_P1;PMS_P2;Temp;Humidity;BMP_temperature;BMP_pressure;BME280_temperature;BME280_humidity;BME280_pressure;Samples;Min_cycle;Max_cycle;Signal;HPM_P1;HPM_P2
2022/07/03 00:01:58;;;;;;;5.45;2.67;;;19.10;99.90;;;;;;4823121;29;20054;-65
2022/07/03 00:04:24;;;;;;;5.05;2.38;;;19.10;99.90;;;;;;4791936;29;20046;-64
2022/07/03 00:06:49;;;;;;;5.50;2.70;;;19.20;99.90;;;;;;4792283;29;20085;-65
2022/07/03 00:09:15;;;;;;;5.00;2.60;;;19.10;99.90;;;;;;4823038;29;20038;-64
2022/07/03 00:11:42;;;;;;;6.03;2.55;;;19.10;99.90;;;;;;4806985;29;20458;-65
2022/07/03 00:14:08;;;;;;;5.40;2.70;;;19.10;99.90;;;;;;4806617;29;20125;-64
2022/07/03 00:16:34;;;;;;;3.92;2.60;;;19.00;99.90;;;;;;4807058;29;20560;-65
2022/07/03 00:18:59;;;;;;;6.05;2.67;;;19.00;99.90;;;;;;4822743;29;20096;-64
2022/07/03 00:21:34;;;;;;;5.63;2.42;;;19.00;99.90;;;;;;4806640;29;20042;-64
2022/07/03 00:24:07;;;;;;;6.50;2.90;;;18.90;99.90;;;;;;4806529;29;20131;-65
2022/07/03 00:26:35;;;;;;;4.50;2.90;;;18.90;99.90;;;;;;4806789;29;20145;-63
2022/07/03 00:29:03;;;;;;;5.10;2.70;;;18.80;99.90;;;;;;4806244;29;20090;-64
2022/07/03 00:31:32;;;;;;;5.90;2.75;;;18.80;99.90;;;;;;4806789;29;20061;-64
2022/07/03 00:34:01;;;;;;;3.92;2.80;;;18.80;99.90;;;;;;4822718;29;20069;-65
2022/07/03 00:36:36;;;;;;;4.90;2.72;;;18.70;99.90;;;;;;4822963;29;20056;-64
2022/07/03 00:39:03;;;;;;;7.40;3.05;;;;;;;;;;4822735;29;20455;-65
2022/07/03 00:41:31;;;;;;;4.80;3.05;;;;;;;;;;4806296;29;20050;-64
2022/07/03 00:43:57;;;;;;;7.00;3.30;;;;;;;;;;4822896;29;20080;-64
2022/07/03 00:46:24;;;;;;;6.82;3.03;;;;;;;;;;4822227;29;20054;-63
2022/07/03 00:48:51;;;;;;;5.00;3.05;;;18.70;99.90;;;;;;4806569;29;20165;-64
2022/07/03 00:51:21;;;;;;;4.72;3.00;;;18.60;99.90;;;;;;4822296;29;20118;-64
2022/07/03 00:53:51;;;;;;;6.50;3.28;;;18.60;99.90;;;;;;4822873;29;20163;-65
2022/07/03 00:56:22;;;;;;;5.10;3.03;;;18.50;99.90;;;;;;4805803;29;20458;-64
2022/07/03 00:58:53;;;;;;;4.50;2.83;;;18.50;99.90;;;;;;4822820;29;20090;-65
2022/07/03 01:01:20;;;;;;;5.55;3.10;;;18.50;99.90;;;;;;4822038;29;20490;-66
2022/07/03 01:03:47;;;;;;;6.50;3.28;;;18.40;99.90;;;;;;4822758;29;20050;-65
2022/07/03 01:06:15;;;;;;;8.60;3.63;;;18.40;99.90;;;;;;4806009;29;20054;-64
2022/07/03 01:08:49;;;;;;;7.40;3.38;;;18.40;99.90;;;;;;4822663;29;20077;-64
2022/07/03 01:11:47;;;;;;;4.35;3.08;;;18.30;99.90;;;;;;4821111;29;20046;-65
2022/07/03 01:14:38;;;;;;;5.13;3.40;;;18.30;99.90;;;;;;4822158;29;20413;-65
2022/07/03 01:17:10;;;;;;;5.13;3.10;;;18.30;99.90;;;;;;4806224;29;20046;-64
2022/07/03 01:19:42;;;;;;;6.55;3.70;;;18.30;99.90;;;;;;4806363;29;20058;-65
2022/07/03 01:22:19;;;;;;;5.55;3.20;;;18.30;99.90;;;;;;4806029;29;20130;-67
2022/07/03 01:25:23;;;;;;;5.85;3.28;;;18.30;99.90;;;;;;4821954;29;20090;-65
2022/07/03 01:28:16;;;;;;;4.82;3.10;;;18.30;99.90;;;;;;4812685;29;20066;-65
2022/07/03 01:30:52;;;;;;;5.30;3.10;;;18.20;99.90;;;;;;4806338;29;20062;-64
2022/07/03 01:33:23;;;;;;;5.85;3.47;;;18.20;99.90;;;;;;4822133;29;20062;-65
2022/07/03 01:36:01;;;;;;;7.43;3.70;;;18.20;99.90;;;;;;4791677;29;20065;-65
2022/07/03 01:38:28;;;;;;;5.60;3.50;;;18.20;99.90;;;;;;4805988;29;20409;-65
2022/07/03 01:40:55;;;;;;;5.80;3.55;;;18.10;99.90;;;;;;4822338;29;20134;-65
2022/07/03 01:43:30;;;;;;;5.80;3.55;;;18.10;99.90;;;;;;4821684;29;20584;-65
2022/07/03 01:45:58;;;;;;;5.78;3.40;;;18.10;99.90;;;;;;4822951;29;20137;-65
2022/07/03 01:48:25;;;;;;;4.78;3.40;;;18.10;99.90;;;;;;4825122;29;20466;-64
2022/07/03 01:50:51;;;;;;;5.38;3.53;;;18.00;99.90;;;;;;4825448;29;20050;-64
2022/07/03 01:53:18;;;;;;;7.90;4.05;;;18.00;99.90;;;;;;4824951;29;20519;-65
2022/07/03 01:55:45;;;;;;;6.78;3.72;;;18.00;99.90;;;;;;4825434;29;20056;-65
2022/07/03 01:58:11;;;;;;;6.03;3.58;;;17.90;99.90;;;;;;4808873;29;20054;-67
2022/07/03 02:00:50;;;;;;;6.95;3.95;;;17.90;99.90;;;;;;4825076;29;20100;-65
2022/07/03 02:03:31;;;;;;;8.20;3.97;;;17.90;99.90;;;;;;4825038;29;20050;-64
2022/07/03 02:06:07;;;;;;;6.00;3.80;;;17.90;99.90;;;;;;4825174;29;20238;-65
2022/07/03 02:08:47;;;;;;;6.47;3.85;;;17.90;99.90;;;;;;4808759;29;20053;-65
2022/07/03 02:11:16;;;;;;;6.28;3.70;;;17.90;99.90;;;;;;4809020;29;20106;-66
2022/07/03 02:14:16;;;;;;;5.32;3.90;;;17.90;99.90;;;;;;4825208;29;20080;-64
2022/07/03 02:16:57;;;;;;;5.82;3.75;;;17.90;99.90;;;;;;4824910;29;20054;-65
2022/07/03 02:19:51;;;;;;;7.07;4.50;;;17.80;99.90;;;;;;4824602;29;20099;-63
2022/07/03 02:22:19;;;;;;;6.05;4.05;;;17.80;99.90;;;;;;4795852;29;20438;-66
2022/07/03 02:24:47;;;;;;;5.57;4.25;;;17.70;99.90;;;;;;4793853;29;20065;-65
2022/07/03 02:27:25;;;;;;;7.63;4.68;;;17.70;99.90;;;;;;4808909;29;20059;-66
2022/07/03 02:30:02;;;;;;;8.43;4.63;;;17.70;99.90;;;;;;4824869;29;20050;-65
2022/07/03 02:32:30;;;;;;;6.40;3.88;;;17.70;99.90;;;;;;4824220;29;20063;-65
2022/07/03 02:35:06;;;;;;;5.65;3.80;;;17.60;99.90;;;;;;4808884;29;20062;-64
2022/07/03 02:37:41;;;;;;;7.38;4.03;;;17.60;99.90;;;;;;4823234;29;20065;-65
2022/07/03 02:40:08;;;;;;;;;;;17.50;99.90;;;;;;4825296;29;20047;-64
2022/07/03 02:42:49;;;;;;;6.18;4.03;;;17.40;99.90;;;;;;4824396;29;20015;-65
2022/07/03 02:45:17;;;;;;;7.43;4.18;;;17.40;99.90;;;;;;4824868;29;20134;-66
2022/07/03 02:47:46;;;;;;;4.85;3.88;;;17.40;99.90;;;;;;4824345;29;20132;-64
2022/07/03 02:50:15;;;;;;;6.13;3.88;;;17.40;99.90;;;;;;4824525;29;20046;-65
2022/07/03 02:52:50;;;;;;;5.88;3.90;;;17.30;99.90;;;;;;4823976;29;20058;-64
2022/07/03 02:55:37;;;;;;;5.60;4.00;;;17.30;99.90;;;;;;4824581;29;20058;-65
2022/07/03 02:58:38;;;;;;;5.57;3.78;;;17.40;99.90;;;;;;4823402;29;20054;-65
2022/07/03 03:01:28;;;;;;;6.38;4.10;;;17.30;99.90;;;;;;4795747;29;20081;-66
2022/07/03 03:04:21;;;;;;;8.73;4.45;;;17.30;99.90;;;;;;4823536;29;20058;-63
2022/07/03 03:07:26;;;;;;;7.60;4.57;;;17.30;99.90;;;;;;4824224;29;20046;-65
2022/07/03 03:09:53;;;;;;;5.43;3.88;;;17.30;99.90;;;;;;4749903;30;20474;-65
2022/07/03 03:12:35;;;;;;;5.20;4.00;;;17.30;99.90;;;;;;4811300;29;20062;-64
2022/07/03 03:15:03;;;;;;;7.40;4.28;;;17.30;99.90;;;;;;4824212;29;20203;-65
2022/07/03 03:17:41;;;;;;;5.15;4.13;;;17.30;99.90;;;;;;4807560;29;20114;-64
2022/07/03 03:20:08;;;;;;;6.82;4.03;;;17.30;99.90;;;;;;4823919;29;20042;-64
2022/07/03 03:23:07;;;;;;;6.05;3.65;;;17.20;99.90;;;;;;4823746;29;20047;-64
2022/07/03 03:25:33;;;;;;;6.03;4.05;;;17.20;99.90;;;;;;4810021;29;20054;-64
2022/07/03 03:27:59;;;;;;;5.05;3.92;;;17.10;99.90;;;;;;4823993;29;20047;-64
2022/07/03 03:30:25;;;;;;;5.55;3.90;;;17.10;99.90;;;;;;4823570;29;20086;-66
2022/07/03 03:32:51;;;;;;;5.35;3.90;;;17.10;99.90;;;;;;4823561;29;20066;-65
2022/07/03 03:35:17;;;;;;;5.00;3.80;;;17.10;99.90;;;;;;4823993;29;20451;-64
2022/07/03 03:37:44;;;;;;;6.65;4.05;;;17.10;99.90;;;;;;4823401;29;20057;-64
2022/07/03 03:40:11;;;;;;;6.22;3.80;;;17.10;99.90;;;;;;4792308;29;20446;-64
2022/07/03 03:42:37;;;;;;;5.18;3.85;;;17.10;99.90;;;;;;4806914;29;20413;-65
2022/07/03 03:45:03;;;;;;;6.97;4.10;;;17.10;99.90;;;;;;4823693;29;20048;-65
2022/07/03 03:47:29;;;;;;;5.25;3.47;;;17.10;99.90;;;;;;4823371;29;20130;-65
2022/07/03 03:49:55;;;;;;;8.15;4.13;;;17.10;99.90;;;;;;4807421;29;20493;-65
2022/07/03 03:52:21;;;;;;;6.13;3.90;;;17.20;99.90;;;;;;4792327;29;20062;-64
2022/07/03 03:54:46;;;;;;;6.05;3.97;;;17.20;99.90;;;;;;4823220;29;20058;-64
2022/07/03 03:57:20;;;;;;;8.55;4.20;;;17.20;99.90;;;;;;4823531;29;20057;-64
2022/07/03 03:59:47;;;;;;;7.88;4.18;;;17.20;99.90;;;;;;4806701;29;20570;-64
2022/07/03 04:02:13;;;;;;;7.30;3.80;;;17.20;99.90;;;;;;4823506;29;20054;-65
2022/07/03 04:04:39;;;;;;;7.20;4.45;;;17.20;99.90;;;;;;4806807;29;20046;-65
2022/07/03 04:07:05;;;;;;;6.05;4.38;;;17.20;99.90;;;;;;4823496;29;20053;-64
2022/07/03 04:09:31;;;;;;;7.55;4.38;;;17.20;99.90;;;;;;4821785;29;20058;-67
2022/07/03 04:11:57;;;;;;;6.00;4.10;;;17.20;99.90;;;;;;4823570;29;20056;-65
2022/07/03 04:14:23;;;;;;;4.80;3.88;;;17.20;99.90;;;;;;4823156;29;20497;-64
2022/07/03 04:16:49;;;;;;;8.02;4.38;;;17.20;99.90;;;;;;4822809;29;20449;-64
2022/07/03 04:19:15;;;;;;;7.25;4.60;;;17.20;99.90;;;;;;4807144;29;20230;-64
2022/07/03 04:21:40;;;;;;;5.25;3.60;;;17.20;99.90;;;;;;4806166;29;20058;-64
2022/07/03 04:24:06;;;;;;;5.90;3.92;;;17.20;99.90;;;;;;4792008;29;20486;-65
2022/07/03 04:26:32;;;;;;;7.50;4.53;;;17.20;99.90;;;;;;4823015;29;20197;-67
2022/07/03 04:28:58;;;;;;;8.75;4.18;;;17.30;99.90;;;;;;4823085;29;20073;-64
2022/07/03 04:31:24;;;;;;;5.45;4.00;;;17.30;99.90;;;;;;4823013;29;20102;-64
2022/07/03 04:33:50;;;;;;;6.90;4.18;;;17.30;99.90;;;;;;4822545;29;20065;-65
2022/07/03 04:36:16;;;;;;;7.57;4.22;;;17.30;99.90;;;;;;4823126;29;20051;-65
2022/07/03 04:38:42;;;;;;;5.53;4.00;;;17.40;99.90;;;;;;4806295;29;20059;-66
2022/07/03 04:41:08;;;;;;;7.20;4.43;;;17.50;99.90;;;;;;4806485;29;20054;-65
2022/07/03 04:43:34;;;;;;;6.35;4.10;;;17.60;99.90;;;;;;4822806;29;20047;-66
2022/07/03 04:46:00;;;;;;;6.63;3.70;;;17.80;99.90;;;;;;4806131;29;20096;-65
2022/07/03 04:48:30;;;;;;;8.15;4.30;;;18.00;99.90;;;;;;4806656;29;20050;-64
2022/07/03 04:50:57;;;;;;;6.85;3.63;;;18.20;99.90;;;;;;4822660;29;20638;-65
2022/07/03 04:53:23;;;;;;;6.25;3.92;;;18.40;99.90;;;;;;4806457;29;20058;-65
2022/07/03 04:55:49;;;;;;;8.32;3.65;;;18.60;99.90;;;;;;4806258;29;20043;-65
2022/07/03 04:58:14;;;;;;;6.72;3.20;;;19.10;99.90;;;;;;4806492;29;20086;-65
2022/07/03 05:00:43;;;;;;;4.75;2.97;;;19.90;99.90;;;;;;4822001;29;20051;-64
2022/07/03 05:03:09;;;;;;;5.63;3.00;;;20.80;99.90;;;;;;4822788;29;20381;-65
2022/07/03 05:05:34;;;;;;;5.38;3.33;;;21.60;99.90;;;;;;4822943;29;20046;-64
2022/07/03 05:08:00;;;;;;;8.38;2.92;;;22.40;99.90;;;;;;4806077;29;20111;-65
2022/07/03 05:10:26;;;;;;;4.97;2.72;;;23.00;99.90;;;;;;4806520;29;20050;-65
2022/07/03 05:12:53;;;;;;;4.40;2.63;;;23.70;99.90;;;;;;4805813;29;20061;-65
2022/07/03 05:15:19;;;;;;;5.10;2.65;;;24.30;99.90;;;;;;4806432;29;20401;-64
2022/07/03 05:17:44;;;;;;;6.60;2.80;;;25.00;99.90;;;;;;4822221;29;20074;-66
2022/07/03 05:20:29;;;;;;;4.38;2.67;;;25.70;99.40;;;;;;4822466;29;20053;-63
2022/07/03 05:23:00;;;;;;;4.65;2.25;;;26.30;97.60;;;;;;4825302;29;20528;-65
2022/07/03 05:25:27;;;;;;;2.78;1.98;;;27.10;96.20;;;;;;4825883;29;20050;-65
2022/07/03 05:27:54;;;;;;;5.15;2.03;;;27.60;94.40;;;;;;4825430;29;20054;-66
2022/07/03 05:30:22;;;;;;;4.30;2.15;;;27.50;94.00;;;;;;4825819;29;20142;-65
2022/07/03 05:32:48;;;;;;;5.45;2.10;;;26.80;94.20;;;;;;4825143;29;20070;-66
2022/07/03 05:35:13;;;;;;;3.28;1.88;;;26.30;94.10;;;;;;4809623;29;20081;-66
2022/07/03 05:37:39;;;;;;;5.32;1.92;;;26.70;94.40;;;;;;4825674;29;20145;-66
2022/07/03 05:40:06;;;;;;;4.32;2.00;;;27.20;93.30;;;;;;4809299;29;20507;-66
2022/07/03 05:42:32;;;;;;;3.55;2.00;;;27.70;92.70;;;;;;4809505;29;20442;-65
2022/07/03 05:44:58;;;;;;;4.90;2.08;;;28.20;92.40;;;;;;4794191;29;20050;-65
2022/07/03 05:47:23;;;;;;;4.75;1.80;;;28.60;90.40;;;;;;4809125;29;20054;-65
2022/07/03 05:49:49;;;;;;;4.65;1.60;;;28.90;90.40;;;;;;4825057;29;20137;-65
2022/07/03 05:52:16;;;;;;;2.58;1.70;;;29.10;89.70;;;;;;4808546;29;20145;-65
2022/07/03 05:54:42;;;;;;;5.57;1.75;;;28.90;89.30;;;;;;4808661;29;20400;-65
2022/07/03 05:57:07;;;;;;;4.97;1.92;;;28.00;89.00;;;;;;4823911;29;20133;-66
2022/07/03 05:59:33;;;;;;;3.60;1.60;;;27.00;90.30;;;;;;4809169;29;20090;-64
2022/07/03 06:01:59;;;;;;;4.18;1.60;;;26.10;90.70;;;;;;4808818;29;20050;-66
2022/07/03 06:04:24;;;;;;;2.38;1.30;;;25.30;91.10;;;;;;4825254;29;20489;-64
2022/07/03 06:06:50;;;;;;;5.40;1.83;;;24.60;91.70;;;;;;4824441;29;20051;-65
2022/07/03 06:09:16;;;;;;;3.60;1.60;;;24.20;92.40;;;;;;4825085;29;20141;-66
2022/07/03 06:11:41;;;;;;;3.28;1.50;;;23.90;93.20;;;;;;4809047;29;20042;-65
2022/07/03 06:14:07;;;;;;;3.55;1.38;;;24.00;93.40;;;;;;4808783;29;20050;-65
2022/07/03 06:16:33;;;;;;;3.42;1.63;;;24.80;93.10;;;;;;4793775;29;20054;-64
2022/07/03 06:18:59;;;;;;;3.50;1.60;;;25.60;91.90;;;;;;4807667;29;20550;-65
2022/07/03 06:21:25;;;;;;;2.60;1.58;;;25.80;91.30;;;;;;4824833;29;20137;-64
2022/07/03 06:23:50;;;;;;;4.85;1.70;;;25.50;91.70;;;;;;4808293;29;20158;-63
2022/07/03 06:26:17;;;;;;;2.30;1.65;;;25.10;91.60;;;;;;4808341;29;20058;-64
2022/07/03 06:28:43;;;;;;;4.70;1.65;;;24.60;91.90;;;;;;4824739;29;20106;-64
2022/07/03 06:31:09;;;;;;;3.83;1.50;;;24.20;92.60;;;;;;4824515;29;20039;-64
2022/07/03 06:33:35;;;;;;;3.40;1.50;;;23.90;93.00;;;;;;4824255;29;20066;-65
2022/07/03 06:36:00;;;;;;;3.78;1.70;;;23.60;93.60;;;;;;4807949;29;20143;-65
2022/07/03 06:38:26;;;;;;;2.70;1.50;;;23.40;93.80;;;;;;4793807;29;20050;-65
2022/07/03 06:40:52;;;;;;;2.70;1.33;;;23.20;93.60;;;;;;4793033;29;20043;-64
2022/07/03 06:43:18;;;;;;;4.32;1.45;;;23.10;94.10;;;;;;4824363;29;20129;-64
2022/07/03 06:45:43;;;;;;;3.80;1.40;;;23.40;94.80;;;;;;4808479;29;20490;-64
2022/07/03 06:48:09;;;;;;;3.88;1.50;;;24.20;94.10;;;;;;4824195;29;20518;-64
2022/07/03 06:50:35;;;;;;;4.05;1.65;;;24.90;92.80;;;;;;4824120;29;20093;-65
2022/07/03 06:53:02;;;;;;;3.35;1.48;;;25.00;92.50;;;;;;4792849;29;20050;-65
2022/07/03 06:55:28;;;;;;;3.30;1.63;;;24.70;92.20;;;;;;4824328;29;20046;-65
2022/07/03 06:57:53;;;;;;;4.57;1.70;;;24.40;92.40;;;;;;4807624;29;20057;-65
2022/07/03 07:00:19;;;;;;;4.35;1.65;;;24.10;92.90;;;;;;4824121;29;20054;-65
2022/07/03 07:02:45;;;;;;;4.18;1.65;;;23.80;93.20;;;;;;4824028;29;20054;-65
2022/07/03 07:05:10;;;;;;;3.92;1.50;;;23.60;93.30;;;;;;4807551;29;20050;-65
2022/07/03 07:07:36;;;;;;;3.42;1.58;;;23.30;93.80;;;;;;4824320;29;20115;-65
2022/07/03 07:10:03;;;;;;;5.30;1.77;;;23.10;94.20;;;;;;4807551;29;20121;-65
2022/07/03 07:12:28;;;;;;;3.83;1.73;;;23.10;94.60;;;;;;4824072;29;20150;-64
2022/07/03 07:14:54;;;;;;;3.83;1.50;;;23.40;94.90;;;;;;4807324;29;20091;-68
2022/07/03 07:17:20;;;;;;;2.15;1.30;;;23.60;94.50;;;;;;4807948;29;20115;-63
2022/07/03 07:19:45;;;;;;;3.65;1.65;;;24.00;94.40;;;;;;4823750;29;20569;-65
2022/07/03 07:22:11;;;;;;;4.40;1.48;;;24.80;93.70;;;;;;4823406;29;20050;-65
2022/07/03 07:24:37;;;;;;;3.42;1.40;;;26.00;93.10;;;;;;4823901;29;20058;-64
2022/07/03 07:27:03;;;;;;;5.55;1.65;;;26.80;91.40;;;;;;4807070;29;20058;-65
2022/07/03 07:29:28;;;;;;;3.08;1.35;;;26.70;90.70;;;;;;4823841;29;20046;-64
2022/07/03 07:31:54;;;;;;;2.38;1.45;;;26.10;91.00;;;;;;4807512;29;20057;-64
2022/07/03 07:34:20;;;;;;;4.68;1.60;;;25.50;91.40;;;;;;4823285;29;20108;-65
2022/07/03 07:36:46;;;;;;;3.58;1.55;;;24.90;91.90;;;;;;4823740;29;20107;-64
2022/07/03 07:39:11;;;;;;;3.58;1.42;;;24.50;92.50;;;;;;4807309;29;20057;-64
2022/07/03 07:41:38;;;;;;;6.45;1.88;;;24.10;92.80;;;;;;4823834;29;20054;-67
2022/07/03 07:44:04;;;;;;;3.05;1.40;;;24.00;93.50;;;;;;4822851;29;20061;-66
2022/07/03 07:46:31;;;;;;;3.85;1.60;;;24.40;93.00;;;;;;4807456;29;20058;-65
2022/07/03 07:48:57;;;;;;;3.75;1.50;;;25.20;92.40;;;;;;4823692;29;20138;-66
2022/07/03 07:51:23;;;;;;;4.10;1.50;;;26.00;91.80;;;;;;4823399;29;20454;-65
2022/07/03 07:53:50;;;;;;;3.10;1.30;;;26.20;91.40;;;;;;4807078;29;20501;-67
2022/07/03 07:56:15;;;;;;;2.63;1.30;;;26.50;91.50;;;;;;4807034;29;20055;-65
2022/07/03 07:58:42;;;;;;;2.55;1.35;;;26.80;91.20;;;;;;4807143;29;20057;-65
2022/07/03 08:06:36;;;;;;;4.30;1.23;;;28.70;87.90;;;;;;4823431;29;20115;-65
2022/07/03 08:09:02;;;;;;;2.65;1.40;;;29.10;87.90;;;;;;4823049;29;20054;-67
2022/07/03 08:11:28;;;;;;;4.18;1.20;;;29.60;86.00;;;;;;4806471;29;20046;-65
2022/07/03 08:13:54;;;;;;;2.22;1.10;;;30.00;84.90;;;;;;4806846;29;20053;-65
2022/07/03 08:16:20;;;;;;;3.30;1.25;;;30.60;85.00;;;;;;4823058;29;20054;-65
2022/07/03 08:18:45;;;;;;;1.88;0.88;;;31.10;82.50;;;;;;4823039;29;20112;-65
2022/07/03 08:21:11;;;;;;;2.45;1.10;;;31.40;81.70;;;;;;4806102;29;20481;-64
2022/07/03 08:23:37;;;;;;;3.17;1.30;;;31.70;81.10;;;;;;4823025;29;20050;-64
2022/07/03 08:26:02;;;;;;;3.80;1.33;;;31.70;79.60;;;;;;4822943;29;20073;-65
2022/07/03 08:28:28;;;;;;;2.53;1.10;;;31.90;78.60;;;;;;4822596;29;20060;-63
2022/07/03 08:30:54;;;;;;;1.92;1.00;;;31.80;78.40;;;;;;4823033;29;20413;-64
2022/07/03 08:33:19;;;;;;;2.83;1.20;;;31.80;78.60;;;;;;4805836;29;20123;-64
2022/07/03 08:35:45;;;;;;;3.35;1.38;;;32.00;77.50;;;;;;4822899;29;20089;-64
2022/07/03 08:38:11;;;;;;;2.50;1.00;;;32.10;78.30;;;;;;4806096;29;20051;-64
2022/07/03 08:40:38;;;;;;;3.42;1.20;;;32.00;76.20;;;;;;4822755;29;20523;-64
2022/07/03 08:43:05;;;;;;;2.65;1.10;;;32.10;77.00;;;;;;4791642;29;20046;-65
2022/07/03 08:45:34;;;;;;;2.28;1.00;;;32.50;76.20;;;;;;4805502;29;20090;-65
2022/07/03 08:48:01;;;;;;;2.55;1.10;;;32.90;76.90;;;;;;4822285;29;20098;-66
2022/07/03 08:50:28;;;;;;;3.35;1.00;;;33.20;73.90;;;;;;4822165;29;20043;-63
2022/07/03 08:52:54;;;;;;;2.00;0.88;;;33.60;73.90;;;;;;4806428;29;20151;-64
2022/07/03 08:55:19;;;;;;;2.60;0.88;;;33.70;72.60;;;;;;4806063;29;20086;-64
2022/07/03 08:57:47;;;;;;;1.98;1.02;;;33.80;72.40;;;;;;4825781;29;20150;-65
2022/07/03 09:00:16;;;;;;;2.30;1.00;;;33.60;72.20;;;;;;4825680;29;20186;-65
2022/07/03 09:02:44;;;;;;;3.92;1.00;;;33.30;71.30;;;;;;4826318;29;20042;-65
2022/07/03 09:05:11;;;;;;;1.70;0.60;;;33.30;70.20;;;;;;4826208;29;20068;-67
2022/07/03 09:07:40;;;;;;;6.20;1.05;;;33.40;69.00;;;;;;4809903;29;20107;-64
2022/07/03 09:10:08;;;;;;;2.50;0.82;;;33.30;68.50;;;;;;4826292;29;20434;-64
2022/07/03 09:12:34;;;;;;;2.10;0.90;;;33.50;69.10;;;;;;4825727;29;20061;-65
2022/07/03 09:15:04;;;;;;;4.53;1.10;;;33.70;68.30;;;;;;4826291;29;20398;-64
2022/07/03 09:17:31;;;;;;;2.70;0.98;;;34.00;68.50;;;;;;4825735;29;20056;-64
2022/07/03 09:20:06;;;;;;;2.00;0.90;;;34.20;68.10;;;;;;4825921;29;20127;-63
2022/07/03 09:22:34;;;;;;;1.58;0.65;;;34.20;68.40;;;;;;4825576;29;20586;-65
2022/07/03 09:25:11;;;;;;;1.98;0.90;;;34.20;68.80;;;;;;4810158;29;20058;-65
2022/07/03 09:27:50;;;;;;;2.83;0.95;;;34.30;67.80;;;;;;4794579;29;20057;-64
2022/07/03 09:30:16;;;;;;;2.22;0.80;;;33.80;67.40;;;;;;4809370;29;20113;-65
2022/07/03 09:32:44;;;;;;;2.13;1.05;;;33.40;68.50;;;;;;4809257;29;20054;-63
2022/07/03 09:35:21;;;;;;;2.78;1.17;;;32.80;67.90;;;;;;4825632;29;20065;-63
2022/07/03 09:37:55;;;;;;;1.52;0.80;;;32.70;68.00;;;;;;4809458;29;20057;-64
2022/07/03 09:40:23;;;;;;;3.55;0.80;;;32.80;69.60;;;;;;4809256;29;20058;-64
2022/07/03 09:43:04;;;;;;;2.15;0.80;;;32.80;68.90;;;;;;4809404;29;20058;-64
2022/07/03 09:45:53;;;;;;;1.65;0.70;;;32.90;67.30;;;;;;4825360;29;20105;-66
2022/07/03 09:48:21;;;;;;;1.48;0.75;;;32.80;67.60;;;;;;4824793;29;20493;-64
2022/07/03 09:50:47;;;;;;;2.25;0.90;;;32.60;68.30;;;;;;4825354;29;20085;-63
2022/07/03 09:53:13;;;;;;;1.52;0.70;;;32.40;68.30;;;;;;4824987;29;20085;-66
2022/07/03 09:55:38;;;;;;;3.25;0.77;;;32.30;69.40;;;;;;4824976;29;20054;-64
2022/07/03 09:58:04;;;;;;;1.92;1.00;;;32.10;69.50;;;;;;4825265;29;20057;-65
2022/07/03 10:00:34;;;;;;;1.60;0.73;;;32.10;68.70;;;;;;4824899;29;20058;-65
2022/07/03 10:03:06;;;;;;;1.88;1.00;;;32.20;69.40;;;;;;4809059;29;20115;-64
2022/07/03 10:05:40;;;;;;;2.25;0.90;;;32.10;69.10;;;;;;4808815;29;20055;-64
2022/07/03 10:08:10;;;;;;;2.05;0.95;;;31.50;69.20;;;;;;4824836;29;20136;-64
2022/07/03 10:10:38;;;;;;;2.70;0.93;;;31.00;70.50;;;;;;4824629;29;20057;-65
2022/07/03 10:13:04;;;;;;;1.48;0.90;;;31.00;71.60;;;;;;4825167;29;20146;-64
2022/07/03 10:15:35;;;;;;;1.33;0.82;;;30.90;71.50;;;;;;4824820;29;20046;-64
2022/07/03 10:18:04;;;;;;;1.48;0.90;;;30.80;72.40;;;;;;4825079;29;20058;-64
2022/07/03 10:20:47;;;;;;;2.78;1.05;;;30.80;71.80;;;;;;4824505;29;20046;-64
2022/07/03 10:23:20;;;;;;;2.30;0.88;;;30.70;72.00;;;;;;4825074;29;20141;-65
2022/07/03 10:25:47;;;;;;;1.83;0.95;;;30.40;71.70;;;;;;4825154;29;20157;-64
2022/07/03 10:28:15;;;;;;;2.90;1.23;;;30.40;72.60;;;;;;4824914;29;20114;-65
2022/07/03 10:30:43;;;;;;;2.85;0.90;;;30.30;72.70;;;;;;4824427;29;20694;-64
2022/07/03 10:33:09;;;;;;;2.97;1.10;;;30.10;73.00;;;;;;4824845;29;20409;-64
2022/07/03 10:35:50;;;;;;;1.95;0.98;;;29.90;72.90;;;;;;4824515;29;20129;-67
2022/07/03 10:38:39;;;;;;;3.00;1.30;;;29.90;74.40;;;;;;4825036;29;20054;-66
2022/07/03 10:47:04;;;;;;;2.83;0.80;;;29.40;74.30;;;;;;4810828;29;20556;-66
2022/07/03 10:49:29;;;;;;;2.75;1.17;;;29.30;74.00;;;;;;4808300;29;20070;-66
2022/07/03 10:51:56;;;;;;;2.33;1.05;;;29.30;72.90;;;;;;4824619;29;20054;-65
2022/07/03 10:54:29;;;;;;;2.30;0.88;;;29.10;71.80;;;;;;4824863;29;20125;-65
2022/07/03 10:56:57;;;;;;;1.73;1.03;;;28.90;72.70;;;;;;4824545;29;20082;-66
2022/07/03 10:59:44;;;;;;;3.67;1.23;;;28.70;74.20;;;;;;4808008;29;20065;-65
2022/07/03 11:02:22;;;;;;;2.53;1.10;;;28.60;73.90;;;;;;4771638;29;20094;-64
2022/07/03 11:04:57;;;;;;;1.52;0.80;;;28.50;74.40;;;;;;4824068;29;20157;-66
2022/07/03 11:07:24;;;;;;;1.75;0.90;;;28.50;73.70;;;;;;4824294;29;20057;-66
2022/07/03 11:10:08;;;;;;;4.38;1.08;;;28.50;73.80;;;;;;4823751;29;20062;-64
2022/07/03 11:12:56;;;;;;;4.15;1.10;;;28.70;74.60;;;;;;4823972;29;20103;-66
2022/07/03 11:15:33;;;;;;;2.72;1.08;;;28.70;74.00;;;;;;4824438;29;20050;-65
2022/07/03 11:18:29;;;;;;;2.83;1.20;;;28.60;74.60;;;;;;4807761;29;20134;-65
2022/07/03 11:21:13;;;;;;;4.82;1.08;;;28.80;75.00;;;;;;4807830;29;20054;-64
2022/07/03 11:23:57;;;;;;;;;;;28.80;74.30;;;;;;4808132;29;20054;-67
2022/07/03 11:26:23;;;;;;;3.35;1.50;;;28.90;75.50;;;;;;4807962;29;19932;-67
2022/07/03 11:28:53;;;;;;;4.05;1.38;;;28.90;75.20;;;;;;4823668;29;20042;-66
2022/07/03 11:31:21;;;;;;;2.15;0.90;;;28.80;73.90;;;;;;4822926;29;20052;-66
2022/07/03 11:34:00;;;;;;;2.10;1.02;;;28.60;74.70;;;;;;4806936;29;20135;-67
2022/07/03 11:36:30;;;;;;;3.80;1.35;;;28.60;76.40;;;;;;4822517;29;20066;-68
2022/07/03 11:38:59;;;;;;;8.23;1.48;;;28.40;76.50;;;;;;4807805;29;20046;-67
2022/07/03 11:41:30;;;;;;;3.92;1.52;;;28.20;75.70;;;;;;4807556;29;20058;-66
2022/07/03 11:44:03;;;;;;;3.70;1.10;;;28.00;75.70;;;;;;4824134;29;20054;-66
2022/07/03 11:46:32;;;;;;;4.47;1.40;;;27.80;76.70;;;;;;4823829;29;20548;-66
2022/07/03 11:49:05;;;;;;;3.20;1.02;;;27.60;76.30;;;;;;4807809;29;20493;-66
2022/07/03 11:51:30;;;;;;;4.93;1.38;;;27.50;76.50;;;;;;4823949;29;20050;-67
2022/07/03 11:53:56;;;;;;;5.43;1.60;;;27.30;78.30;;;;;;4823851;29;20054;-65
2022/07/03 11:56:23;;;;;;;5.38;1.83;;;27.40;82.00;;;;;;4807508;29;20504;-66
2022/07/03 11:58:53;;;;;;;4.97;1.42;;;27.40;81.90;;;;;;4823528;29;20050;-65
2022/07/03 12:01:22;;;;;;;5.55;1.77;;;27.40;82.60;;;;;;4822485;29;20057;-66
2022/07/03 12:03:48;;;;;;;6.68;1.77;;;27.50;82.80;;;;;;4822169;29;20509;-66
2022/07/03 12:06:14;;;;;;;5.18;1.70;;;27.70;81.90;;;;;;4822908;29;20057;-66
2022/07/03 12:08:42;;;;;;;5.57;1.70;;;27.70;82.50;;;;;;4822006;29;20144;-66
2022/07/03 12:11:09;;;;;;;4.47;1.35;;;27.50;81.20;;;;;;4822452;29;20054;-66
2022/07/03 12:13:35;;;;;;;5.80;1.48;;;27.40;81.40;;;;;;4822303;29;20057;-69
2022/07/03 12:16:10;;;;;;;4.20;1.50;;;27.50;80.30;;;;;;4806304;29;20053;-65
2022/07/03 12:18:46;;;;;;;3.53;1.50;;;27.50;79.50;;;;;;4822200;29;20052;-66
2022/07/03 12:21:13;;;;;;;3.53;1.48;;;27.40;80.80;;;;;;4822377;29;20047;-66
2022/07/03 12:23:44;;;;;;;5.05;1.70;;;27.30;81.10;;;;;;4805668;29;20050;-65
2022/07/03 12:26:10;;;;;;;4.68;1.30;;;27.30;81.40;;;;;;4822189;29;20066;-66
2022/07/03 12:28:36;;;;;;;2.40;1.20;;;27.40;79.70;;;;;;4822273;29;20050;-66
2022/07/03 12:31:02;;;;;;;6.35;1.55;;;27.50;80.10;;;;;;4821920;29;20058;-66
2022/07/03 12:33:30;;;;;;;4.75;1.40;;;27.70;79.10;;;;;;4822012;29;20070;-67
2022/07/03 12:36:07;;;;;;;4.00;1.27;;;27.80;79.30;;;;;;4821965;29;20421;-66
2022/07/03 12:38:33;;;;;;;5.63;1.20;;;27.80;78.70;;;;;;4822085;29;20141;-66
2022/07/03 12:41:09;;;;;;;3.88;1.40;;;27.60;78.40;;;;;;4821723;29;20405;-65
2022/07/03 12:43:44;;;;;;;4.43;1.30;;;27.70;80.20;;;;;;4822254;29;20054;-66
2022/07/03 12:46:20;;;;;;;3.45;1.35;;;27.80;81.10;;;;;;4822091;29;20061;-66
2022/07/03 12:48:53;;;;;;;3.65;1.60;;;27.90;81.40;;;;;;4805174;29;20053;-66
2022/07/03 12:51:40;;;;;;;;;;;27.90;80.50;;;;;;4822498;29;20482;-66
2022/07/03 12:54:21;;;;;;;7.43;1.73;;;27.90;81.10;;;;;;4822237;29;19924;-66
2022/07/03 12:59:16;;;;;;;6.45;1.60;;;27.80;81.90;;;;;;4804474;29;20058;-66
2022/07/03 13:00:05;;;;;;;5.05;1.50;;;27.70;82.50;;;;;;4804989;29;20062;-65
2022/07/03 13:02:31;;;;;;;4.63;1.70;;;27.50;84.70;;;;;;4805457;29;20133;-65
2022/07/03 13:04:59;;;;;;;4.22;1.67;;;27.30;86.20;;;;;;4805261;29;20051;-66
2022/07/03 13:07:30;;;;;;;4.53;1.48;;;26.90;86.40;;;;;;4821579;29;20107;-66
2022/07/03 13:09:58;;;;;;;4.43;1.30;;;26.70;86.70;;;;;;4805112;29;20050;-67
2022/07/03 13:12:24;;;;;;;5.68;1.20;;;26.50;86.60;;;;;;4821709;29;20500;-66
2022/07/03 13:14:59;;;;;;;4.35;1.67;;;26.40;87.20;;;;;;4821319;29;20101;-66